sensor_id;sensor_type;location;lat;lon;timestamp;temperature;humidity
42617;DHT22;28250;52.320;0.360;2024-02-21T00:01:54;8.90;99.90
42617;DHT22;28250;52.320;0.360;2024-02-21T00:04:20;8.90;99.90
42617;DHT22;28250;52.320;0.360;2024-02-21T00:06:46;9.00;99.90
42617;DHT22;28250;52.320;0.360;2024-02-21T00:09:12;9.00;99.90
42617;DHT22;28250;52.320;0.360;2024-02-21T00:11:38;9.00;99.90
42617;DHT22;28250;52.320;0.360;2024-02-21T00:14:04;9.00;99.90
42617;DHT22;28250;52.320;0.360;2024-02-21T00:16:30;9.00;99.90
42617;DHT22;28250;52.320;0.360;2024-02-21T00:18:56;9.00;99.90
42617;DHT22;28250;52.320;0.360;2024-02-21T00:21:22;9.00;99.90
42617;DHT22;28250;52.320;0.360;2024-02-21T00:23:48;9.00;99.90
42617;DHT22;28250;52.320;0.360;2024-02-21T00:26:16;9.00;99.90
42617;DHT22;28250;52.320;0.360;2024-02-21T00:28:42;9.00;99.90
42617;DHT22;28250;52.320;0.360;2024-02-21T00:31:08;9.00;99.90
42617;DHT22;28250;52.320;0.360;2024-02-21T00:33:34;9.10;99.90
42617;DHT22;28250;52.320;0.360;2024-02-21T00:36:00;9.00;99.90
42617;DHT22;28250;52.320;0.360;2024-02-21T00:38:26;9.00;99.90
42617;DHT22;28250;52.320;0.360;2024-02-21T00:40:52;9.10;99.90
42617;DHT22;28250;52.320;0.360;2024-02-21T00:43:18;9.10;99.90
42617;DHT22;28250;52.320;0.360;2024-02-21T00:45:44;9.00;99.90
42617;DHT22;28250;52.320;0.360;2024-02-21T00:48:10;9.00;99.90
42617;DHT22;28250;52.320;0.360;2024-02-21T00:50:36;9.10;99.90
42617;DHT22;28250;52.320;0.360;2024-02-21T00:53:03;9.10;99.90
42617;DHT22;28250;52.320;0.360;2024-02-21T00:55:30;9.10;99.90
42617;DHT22;28250;52.320;0.360;2024-02-21T00:57:56;9.10;99.90
42617;DHT22;28250;52.320;0.360;2024-02-21T01:00:22;9.10;99.90
42617;DHT22;28250;52.320;0.360;2024-02-21T01:02:48;9.10;99.90
42617;DHT22;28250;52.320;0.360;2024-02-21T01:05:14;9.10;99.90
42617;DHT22;28250;52.320;0.360;2024-02-21T01:07:40;9.10;99.90
42617;DHT22;28250;52.320;0.360;2024-02-21T01:10:07;9.10;99.90
42617;DHT22;28250;52.320;0.360;2024-02-21T01:12:33;9.10;99.90
42617;DHT22;28250;52.320;0.360;2024-02-21T01:14:59;9.10;99.90
42617;DHT22;28250;52.320;0.360;2024-02-21T01:17:25;9.10;99.90
42617;DHT22;28250;52.320;0.360;2024-02-21T01:19:51;9.10;99.90
42617;DHT22;28250;52.320;0.360;2024-02-21T01:22:17;9.10;99.90
42617;DHT22;28250;52.320;0.360;2024-02-21T01:24:44;9.10;99.90
42617;DHT22;28250;52.320;0.360;2024-02-21T01:27:10;9.10;99.90
42617;DHT22;28250;52.320;0.360;2024-02-21T01:29:36;9.10;99.90
42617;DHT22;28250;52.320;0.360;2024-02-21T01:32:02;9.10;99.90
42617;DHT22;28250;52.320;0.360;2024-02-21T01:34:28;9.10;99.90
42617;DHT22;28250;52.320;0.360;2024-02-21T01:36:54;9.10;99.90
42617;DHT22;28250;52.320;0.360;2024-02-21T01:39:20;9.10;99.90
42617;DHT22;28250;52.320;0.360;2024-02-21T01:41:46;9.10;99.90
42617;DHT22;28250;52.320;0.360;2024-02-21T01:44:13;9.10;99.90
42617;DHT22;28250;52.320;0.360;2024-02-21T01:46:39;9.10;99.90
42617;DHT22;28250;52.320;0.360;2024-02-21T01:49:05;9.10;99.90
42617;DHT22;28250;52.320;0.360;2024-02-21T01:51:32;9.00;99.90
42617;DHT22;28250;52.320;0.360;2024-02-21T01:53:58;9.00;99.90
42617;DHT22;28250;52.320;0.360;2024-02-21T01:56:24;9.00;99.90
42617;DHT22;28250;52.320;0.360;2024-02-21T01:58:51;9.10;99.90
42617;DHT22;28250;52.320;0.360;2024-02-21T02:01:17;9.00;99.90
42617;DHT22;28250;52.320;0.360;2024-02-21T02:03:45;9.10;99.90
42617;DHT22;28250;52.320;0.360;2024-02-21T02:06:12;9.00;99.90
42617;DHT22;28250;52.320;0.360;2024-02-21T02:08:38;9.00;99.90
42617;DHT22;28250;52.320;0.360;2024-02-21T02:11:04;9.00;99.90
42617;DHT22;28250;52.320;0.360;2024-02-21T02:13:31;9.00;99.90
42617;DHT22;28250;52.320;0.360;2024-02-21T02:15:57;9.00;99.90
42617;DHT22;28250;52.320;0.360;2024-02-21T02:18:23;9.00;99.90
42617;DHT22;28250;52.320;0.360;2024-02-21T02:20:49;9.00;99.90
42617;DHT22;28250;52.320;0.360;2024-02-21T02:23:41;9.00;99.90
42617;DHT22;28250;52.320;0.360;2024-02-21T02:26:08;9.00;99.90
42617;DHT22;28250;52.320;0.360;2024-02-21T02:28:34;9.00;99.90
42617;DHT22;28250;52.320;0.360;2024-02-21T02:31:04;9.00;99.90
42617;DHT22;28250;52.320;0.360;2024-02-21T02:33:34;9.00;99.90
42617;DHT22;28250;52.320;0.360;2024-02-21T02:36:00;9.00;99.90
42617;DHT22;28250;52.320;0.360;2024-02-21T02:38:26;8.90;99.90
42617;DHT22;28250;52.320;0.360;2024-02-21T02:40:52;9.00;99.90
42617;DHT22;28250;52.320;0.360;2024-02-21T02:43:18;8.90;99.90
42617;DHT22;28250;52.320;0.360;2024-02-21T02:45:44;8.90;99.90
42617;DHT22;28250;52.320;0.360;2024-02-21T02:48:10;8.90;99.90
42617;DHT22;28250;52.320;0.360;2024-02-21T02:50:37;8.90;99.90
42617;DHT22;28250;52.320;0.360;2024-02-21T02:53:03;8.90;99.90
42617;DHT22;28250;52.320;0.360;2024-02-21T02:55:29;8.90;99.90
42617;DHT22;28250;52.320;0.360;2024-02-21T02:57:55;9.00;99.90
42617;DHT22;28250;52.320;0.360;2024-02-21T03:00:21;9.00;99.90
42617;DHT22;28250;52.320;0.360;2024-02-21T03:02:49;9.00;99.90
42617;DHT22;28250;52.320;0.360;2024-02-21T03:05:18;8.90;99.90
42617;DHT22;28250;52.320;0.360;2024-02-21T03:07:46;8.90;99.90
42617;DHT22;28250;52.320;0.360;2024-02-21T03:10:13;8.90;99.90
42617;DHT22;28250;52.320;0.360;2024-02-21T03:12:42;8.90;99.90
42617;DHT22;28250;52.320;0.360;2024-02-21T03:15:08;8.90;99.90
42617;DHT22;28250;52.320;0.360;2024-02-21T03:17:35;8.90;99.90
42617;DHT22;28250;52.320;0.360;2024-02-21T03:20:02;8.80;99.90
42617;DHT22;28250;52.320;0.360;2024-02-21T03:22:31;8.90;99.90
42617;DHT22;28250;52.320;0.360;2024-02-21T03:24:58;8.80;99.90
42617;DHT22;28250;52.320;0.360;2024-02-21T03:27:24;8.80;99.90
42617;DHT22;28250;52.320;0.360;2024-02-21T03:29:52;8.90;99.90
42617;DHT22;28250;52.320;0.360;2024-02-21T03:32:19;8.90;99.90
42617;DHT22;28250;52.320;0.360;2024-02-21T03:34:45;8.90;99.90
42617;DHT22;28250;52.320;0.360;2024-02-21T03:37:11;8.90;99.90
42617;DHT22;28250;52.320;0.360;2024-02-21T03:39:39;8.90;99.90
42617;DHT22;28250;52.320;0.360;2024-02-21T03:42:06;8.80;99.90
42617;DHT22;28250;52.320;0.360;2024-02-21T03:44:32;8.90;99.90
42617;DHT22;28250;52.320;0.360;2024-02-21T03:46:59;8.90;99.90
42617;DHT22;28250;52.320;0.360;2024-02-21T03:49:26;8.90;99.90
42617;DHT22;28250;52.320;0.360;2024-02-21T03:51:52;8.90;99.90
42617;DHT22;28250;52.320;0.360;2024-02-21T03:54:19;8.90;99.90
42617;DHT22;28250;52.320;0.360;2024-02-21T03:56:45;8.90;99.90
42617;DHT22;28250;52.320;0.360;2024-02-21T03:59:13;9.00;99.90
42617;DHT22;28250;52.320;0.360;2024-02-21T04:01:39;8.90;99.90
42617;DHT22;28250;52.320;0.360;2024-02-21T04:04:05;9.00;99.90
42617;DHT22;28250;52.320;0.360;2024-02-21T04:06:31;9.00;99.90
42617;DHT22;28250;52.320;0.360;2024-02-21T04:08:57;9.00;99.90
42617;DHT22;28250;52.320;0.360;2024-02-21T04:11:23;8.90;99.90
42617;DHT22;28250;52.320;0.360;2024-02-21T04:13:50;9.00;99.90
42617;DHT22;28250;52.320;0.360;2024-02-21T04:16:17;8.90;99.90
42617;DHT22;28250;52.320;0.360;2024-02-21T04:18:46;8.90;99.90
42617;DHT22;28250;52.320;0.360;2024-02-21T04:21:14;8.90;99.90
42617;DHT22;28250;52.320;0.360;2024-02-21T04:23:42;8.90;99.90
42617;DHT22;28250;52.320;0.360;2024-02-21T04:26:08;8.90;99.90
42617;DHT22;28250;52.320;0.360;2024-02-21T04:28:34;8.90;99.90
42617;DHT22;28250;52.320;0.360;2024-02-21T04:31:00;8.90;99.90
42617;DHT22;28250;52.320;0.360;2024-02-21T04:33:26;8.90;99.90
42617;DHT22;28250;52.320;0.360;2024-02-21T04:35:52;8.90;99.90
42617;DHT22;28250;52.320;0.360;2024-02-21T04:38:20;8.90;99.90
42617;DHT22;28250;52.320;0.360;2024-02-21T04:40:46;8.80;99.90
42617;DHT22;28250;52.320;0.360;2024-02-21T04:43:12;8.90;99.90
42617;DHT22;28250;52.320;0.360;2024-02-21T04:45:38;8.90;99.90
42617;DHT22;28250;52.320;0.360;2024-02-21T04:48:04;8.90;99.90
42617;DHT22;28250;52.320;0.360;2024-02-21T04:50:31;8.90;99.90
42617;DHT22;28250;52.320;0.360;2024-02-21T04:52:57;8.90;99.90
42617;DHT22;28250;52.320;0.360;2024-02-21T04:55:23;8.90;99.90
42617;DHT22;28250;52.320;0.360;2024-02-21T04:57:49;8.90;99.90
42617;DHT22;28250;52.320;0.360;2024-02-21T05:00:15;8.80;99.90
42617;DHT22;28250;52.320;0.360;2024-02-21T05:02:41;8.90;99.90
42617;DHT22;28250;52.320;0.360;2024-02-21T05:05:08;8.90;99.90
42617;DHT22;28250;52.320;0.360;2024-02-21T05:07:35;8.90;99.90
42617;DHT22;28250;52.320;0.360;2024-02-21T05:10:01;8.90;99.90
42617;DHT22;28250;52.320;0.360;2024-02-21T05:12:27;8.90;99.90
42617;DHT22;28250;52.320;0.360;2024-02-21T05:14:53;8.90;99.90
42617;DHT22;28250;52.320;0.360;2024-02-21T05:17:19;8.90;99.90
42617;DHT22;28250;52.320;0.360;2024-02-21T05:19:45;8.80;99.90
42617;DHT22;28250;52.320;0.360;2024-02-21T05:22:11;8.90;99.90
42617;DHT22;28250;52.320;0.360;2024-02-21T05:24:39;8.90;99.90
42617;DHT22;28250;52.320;0.360;2024-02-21T05:27:05;8.90;99.90
42617;DHT22;28250;52.320;0.360;2024-02-21T05:29:33;8.90;99.90
42617;DHT22;28250;52.320;0.360;2024-02-21T05:31:59;9.00;99.90
42617;DHT22;28250;52.320;0.360;2024-02-21T05:34:25;8.90;99.90
42617;DHT22;28250;52.320;0.360;2024-02-21T05:36:52;8.90;99.90
42617;DHT22;28250;52.320;0.360;2024-02-21T05:39:18;9.00;99.90
42617;DHT22;28250;52.320;0.360;2024-02-21T05:41:44;8.90;99.90
42617;DHT22;28250;52.320;0.360;2024-02-21T05:44:11;8.90;99.90
42617;DHT22;28250;52.320;0.360;2024-02-21T05:46:37;8.90;99.90
42617;DHT22;28250;52.320;0.360;2024-02-21T05:49:03;8.90;99.90
42617;DHT22;28250;52.320;0.360;2024-02-21T05:51:33;8.90;99.90
42617;DHT22;28250;52.320;0.360;2024-02-21T05:54:00;8.90;99.90
42617;DHT22;28250;52.320;0.360;2024-02-21T05:56:26;8.90;99.90
42617;DHT22;28250;52.320;0.360;2024-02-21T05:58:52;8.90;99.90
42617;DHT22;28250;52.320;0.360;2024-02-21T06:01:18;8.90;99.90
42617;DHT22;28250;52.320;0.360;2024-02-21T06:03:44;8.90;99.90
42617;DHT22;28250;52.320;0.360;2024-02-21T06:06:10;8.90;99.90
42617;DHT22;28250;52.320;0.360;2024-02-21T06:08:39;8.90;99.90
42617;DHT22;28250;52.320;0.360;2024-02-21T06:11:05;8.90;99.90
42617;DHT22;28250;52.320;0.360;2024-02-21T06:13:31;8.90;99.90
42617;DHT22;28250;52.320;0.360;2024-02-21T06:15:57;8.90;99.90
42617;DHT22;28250;52.320;0.360;2024-02-21T06:18:23;8.90;99.90
42617;DHT22;28250;52.320;0.360;2024-02-21T06:20:49;8.90;99.90
42617;DHT22;28250;52.320;0.360;2024-02-21T06:23:16;8.90;99.90
42617;DHT22;28250;52.320;0.360;2024-02-21T06:25:43;8.90;99.90
42617;DHT22;28250;52.320;0.360;2024-02-21T06:28:09;8.90;99.90
42617;DHT22;28250;52.320;0.360;2024-02-21T06:30:35;8.90;99.90
42617;DHT22;28250;52.320;0.360;2024-02-21T06:33:02;8.90;99.90
42617;DHT22;28250;52.320;0.360;2024-02-21T06:35:28;8.90;99.90
42617;DHT22;28250;52.320;0.360;2024-02-21T06:37:54;8.90;99.90
42617;DHT22;28250;52.320;0.360;2024-02-21T06:40:24;8.90;99.90
42617;DHT22;28250;52.320;0.360;2024-02-21T06:42:50;8.90;99.90
42617;DHT22;28250;52.320;0.360;2024-02-21T06:45:16;8.90;99.90
42617;DHT22;28250;52.320;0.360;2024-02-21T06:47:43;8.90;99.90
42617;DHT22;28250;52.320;0.360;2024-02-21T06:50:09;8.90;99.90
42617;DHT22;28250;52.320;0.360;2024-02-21T06:52:38;8.90;99.90
42617;DHT22;28250;52.320;0.360;2024-02-21T06:55:05;8.90;99.90
42617;DHT22;28250;52.320;0.360;2024-02-21T06:57:31;8.90;99.90
42617;DHT22;28250;52.320;0.360;2024-02-21T06:59:57;8.90;99.90
42617;DHT22;28250;52.320;0.360;2024-02-21T07:02:23;8.90;99.90
42617;DHT22;28250;52.320;0.360;2024-02-21T07:04:49;8.90;99.90
42617;DHT22;28250;52.320;0.360;2024-02-21T07:07:15;8.90;99.90
42617;DHT22;28250;52.320;0.360;2024-02-21T07:09:42;8.80;99.90
42617;DHT22;28250;52.320;0.360;2024-02-21T07:12:08;8.80;99.90
42617;DHT22;28250;52.320;0.360;2024-02-21T07:14:35;8.80;99.90
42617;DHT22;28250;52.320;0.360;2024-02-21T07:17:01;8.80;99.90
42617;DHT22;28250;52.320;0.360;2024-02-21T07:19:27;8.80;99.90
42617;DHT22;28250;52.320;0.360;2024-02-21T07:21:53;8.80;99.90
42617;DHT22;28250;52.320;0.360;2024-02-21T07:24:19;8.80;99.90
42617;DHT22;28250;52.320;0.360;2024-02-21T07:26:46;8.80;99.90
42617;DHT22;28250;52.320;0.360;2024-02-21T07:29:12;8.80;99.90
42617;DHT22;28250;52.320;0.360;2024-02-21T07:31:41;8.80;99.90
42617;DHT22;28250;52.320;0.360;2024-02-21T07:34:08;8.80;99.90
42617;DHT22;28250;52.320;0.360;2024-02-21T07:36:34;8.80;99.90
42617;DHT22;28250;52.320;0.360;2024-02-21T07:39:00;8.80;99.90
42617;DHT22;28250;52.320;0.360;2024-02-21T07:41:27;8.80;99.90
42617;DHT22;28250;52.320;0.360;2024-02-21T07:43:56;8.80;99.90
42617;DHT22;28250;52.320;0.360;2024-02-21T07:46:22;8.80;99.90
42617;DHT22;28250;52.320;0.360;2024-02-21T07:48:48;8.70;99.90
42617;DHT22;28250;52.320;0.360;2024-02-21T07:51:14;8.70;99.90
42617;DHT22;28250;52.320;0.360;2024-02-21T07:53:44;8.70;99.90
42617;DHT22;28250;52.320;0.360;2024-02-21T07:56:11;8.70;99.90
42617;DHT22;28250;52.320;0.360;2024-02-21T07:58:37;8.70;99.90
42617;DHT22;28250;52.320;0.360;2024-02-21T08:01:04;8.70;99.90
42617;DHT22;28250;52.320;0.360;2024-02-21T08:03:30;8.70;99.90
42617;DHT22;28250;52.320;0.360;2024-02-21T08:05:56;8.70;99.90
42617;DHT22;28250;52.320;0.360;2024-02-21T08:08:22;8.70;99.90
42617;DHT22;28250;52.320;0.360;2024-02-21T08:10:52;8.70;99.90
42617;DHT22;28250;52.320;0.360;2024-02-21T08:13:18;8.70;99.90
42617;DHT22;28250;52.320;0.360;2024-02-21T08:15:44;8.70;99.90
42617;DHT22;28250;52.320;0.360;2024-02-21T08:18:10;8.70;99.90
42617;DHT22;28250;52.320;0.360;2024-02-21T08:20:36;8.70;99.90
42617;DHT22;28250;52.320;0.360;2024-02-21T08:23:02;8.70;99.90
42617;DHT22;28250;52.320;0.360;2024-02-21T08:25:29;8.70;99.90
42617;DHT22;28250;52.320;0.360;2024-02-21T08:27:58;8.70;99.90
42617;DHT22;28250;52.320;0.360;2024-02-21T08:30:25;8.70;99.90
42617;DHT22;28250;52.320;0.360;2024-02-21T08:32:51;8.70;99.90
42617;DHT22;28250;52.320;0.360;2024-02-21T08:35:19;8.80;99.90
42617;DHT22;28250;52.320;0.360;2024-02-21T08:37:48;8.80;99.90
42617;DHT22;28250;52.320;0.360;2024-02-21T08:40:14;8.80;99.90
42617;DHT22;28250;52.320;0.360;2024-02-21T08:42:44;8.80;99.90
42617;DHT22;28250;52.320;0.360;2024-02-21T08:45:10;8.80;99.90
42617;DHT22;28250;52.320;0.360;2024-02-21T08:47:38;8.80;99.90
42617;DHT22;28250;52.320;0.360;2024-02-21T08:50:05;8.90;99.90
42617;DHT22;28250;52.320;0.360;2024-02-21T08:52:32;8.90;99.90
42617;DHT22;28250;52.320;0.360;2024-02-21T08:54:58;8.90;99.90
42617;DHT22;28250;52.320;0.360;2024-02-21T08:57:24;8.90;99.90
42617;DHT22;28250;52.320;0.360;2024-02-21T08:59:50;8.90;99.90
42617;DHT22;28250;52.320;0.360;2024-02-21T09:02:16;9.00;99.90
42617;DHT22;28250;52.320;0.360;2024-02-21T09:04:42;8.90;99.90
42617;DHT22;28250;52.320;0.360;2024-02-21T09:07:12;9.00;99.90
42617;DHT22;28250;52.320;0.360;2024-02-21T09:09:38;9.00;99.90
42617;DHT22;28250;52.320;0.360;2024-02-21T09:12:08;9.00;99.90
42617;DHT22;28250;52.320;0.360;2024-02-21T09:14:36;9.00;99.90
42617;DHT22;28250;52.320;0.360;2024-02-21T09:17:04;9.00;99.90
42617;DHT22;28250;52.320;0.360;2024-02-21T09:19:30;9.00;99.90
42617;DHT22;28250;52.320;0.360;2024-02-21T09:21:56;9.00;99.90
42617;DHT22;28250;52.320;0.360;2024-02-21T09:24:22;9.10;99.90
42617;DHT22;28250;52.320;0.360;2024-02-21T09:26:48;9.10;99.90
42617;DHT22;28250;52.320;0.360;2024-02-21T09:29:15;9.10;99.90
42617;DHT22;28250;52.320;0.360;2024-02-21T09:31:42;9.10;99.90
42617;DHT22;28250;52.320;0.360;2024-02-21T09:34:08;9.10;99.90
42617;DHT22;28250;52.320;0.360;2024-02-21T09:36:34;9.10;99.90
42617;DHT22;28250;52.320;0.360;2024-02-21T09:39:00;9.20;99.90
42617;DHT22;28250;52.320;0.360;2024-02-21T09:41:26;9.20;99.90
42617;DHT22;28250;52.320;0.360;2024-02-21T09:43:55;9.20;99.90
42617;DHT22;28250;52.320;0.360;2024-02-21T09:47:01;9.20;99.90
42617;DHT22;28250;52.320;0.360;2024-02-21T09:49:33;9.20;99.90
42617;DHT22;28250;52.320;0.360;2024-02-21T09:52:04;9.20;99.90
42617;DHT22;28250;52.320;0.360;2024-02-21T09:54:32;9.20;99.90
42617;DHT22;28250;52.320;0.360;2024-02-21T09:57:00;9.30;99.90
42617;DHT22;28250;52.320;0.360;2024-02-21T09:59:28;9.30;99.90
42617;DHT22;28250;52.320;0.360;2024-02-21T10:01:55;9.30;99.90
42617;DHT22;28250;52.320;0.360;2024-02-21T10:04:21;9.30;99.90
42617;DHT22;28250;52.320;0.360;2024-02-21T10:06:47;9.30;99.90
42617;DHT22;28250;52.320;0.360;2024-02-21T10:09:27;9.30;99.90
42617;DHT22;28250;52.320;0.360;2024-02-21T10:11:55;9.30;99.90
42617;DHT22;28250;52.320;0.360;2024-02-21T10:14:21;9.30;99.90
42617;DHT22;28250;52.320;0.360;2024-02-21T10:16:49;9.40;99.90
42617;DHT22;28250;52.320;0.360;2024-02-21T10:19:21;9.40;99.90
42617;DHT22;28250;52.320;0.360;2024-02-21T10:22:09;9.30;99.90
42617;DHT22;28250;52.320;0.360;2024-02-21T10:24:36;9.40;99.90
42617;DHT22;28250;52.320;0.360;2024-02-21T10:27:08;9.40;99.90
42617;DHT22;28250;52.320;0.360;2024-02-21T10:29:37;9.40;99.90
42617;DHT22;28250;52.320;0.360;2024-02-21T10:32:11;9.40;99.90
42617;DHT22;28250;52.320;0.360;2024-02-21T10:34:40;9.40;99.90
42617;DHT22;28250;52.320;0.360;2024-02-21T10:37:08;9.40;99.90
42617;DHT22;28250;52.320;0.360;2024-02-21T10:39:40;9.40;99.90
42617;DHT22;28250;52.320;0.360;2024-02-21T10:42:07;9.50;99.90
42617;DHT22;28250;52.320;0.360;2024-02-21T10:44:40;9.50;99.90
42617;DHT22;28250;52.320;0.360;2024-02-21T10:47:10;9.50;99.90
42617;DHT22;28250;52.320;0.360;2024-02-21T10:49:40;9.50;99.90
42617;DHT22;28250;52.320;0.360;2024-02-21T10:55:24;9.50;99.90
42617;DHT22;28250;52.320;0.360;2024-02-21T10:57:54;9.50;99.90
42617;DHT22;28250;52.320;0.360;2024-02-21T11:00:20;9.50;99.90
42617;DHT22;28250;52.320;0.360;2024-02-21T11:02:47;9.50;99.90
42617;DHT22;28250;52.320;0.360;2024-02-21T11:05:15;9.60;99.90
42617;DHT22;28250;52.320;0.360;2024-02-21T11:07:42;9.60;99.90
42617;DHT22;28250;52.320;0.360;2024-02-21T11:10:22;9.60;99.90
42617;DHT22;28250;52.320;0.360;2024-02-21T11:12:52;9.60;99.90
42617;DHT22;28250;52.320;0.360;2024-02-21T11:15:26;9.60;99.90
42617;DHT22;28250;52.320;0.360;2024-02-21T11:17:56;9.60;99.90
42617;DHT22;28250;52.320;0.360;2024-02-21T11:20:32;9.60;99.90
42617;DHT22;28250;52.320;0.360;2024-02-21T11:22:59;9.60;99.90
42617;DHT22;28250;52.320;0.360;2024-02-21T11:25:27;9.60;99.90
42617;DHT22;28250;52.320;0.360;2024-02-21T11:28:03;9.70;99.90
42617;DHT22;28250;52.320;0.360;2024-02-21T11:30:31;9.70;99.90
42617;DHT22;28250;52.320;0.360;2024-02-21T11:33:02;9.70;99.90
42617;DHT22;28250;52.320;0.360;2024-02-21T11:35:36;9.70;99.90
42617;DHT22;28250;52.320;0.360;2024-02-21T11:38:12;9.70;99.90
42617;DHT22;28250;52.320;0.360;2024-02-21T11:40:44;9.70;99.90
42617;DHT22;28250;52.320;0.360;2024-02-21T11:43:11;9.70;99.90
42617;DHT22;28250;52.320;0.360;2024-02-21T11:45:38;9.70;99.90
42617;DHT22;28250;52.320;0.360;2024-02-21T11:48:08;9.70;99.90
42617;DHT22;28250;52.320;0.360;2024-02-21T11:50:35;9.70;99.90
42617;DHT22;28250;52.320;0.360;2024-02-21T11:53:05;9.70;99.90
42617;DHT22;28250;52.320;0.360;2024-02-21T11:55:31;9.80;99.90
42617;DHT22;28250;52.320;0.360;2024-02-21T11:57:57;9.80;99.90
42617;DHT22;28250;52.320;0.360;2024-02-21T12:00:25;9.80;99.90
42617;DHT22;28250;52.320;0.360;2024-02-21T12:02:51;9.80;99.90
42617;DHT22;28250;52.320;0.360;2024-02-21T12:05:19;9.80;99.90
42617;DHT22;28250;52.320;0.360;2024-02-21T12:07:46;9.90;99.90
42617;DHT22;28250;52.320;0.360;2024-02-21T12:10:12;9.90;99.90
42617;DHT22;28250;52.320;0.360;2024-02-21T12:12:39;9.90;99.90
42617;DHT22;28250;52.320;0.360;2024-02-21T12:15:07;9.90;99.90
42617;DHT22;28250;52.320;0.360;2024-02-21T12:17:33;10.00;99.90
42617;DHT22;28250;52.320;0.360;2024-02-21T12:20:03;9.90;99.90
42617;DHT22;28250;52.320;0.360;2024-02-21T12:22:37;10.00;99.90
42617;DHT22;28250;52.320;0.360;2024-02-21T12:25:04;10.00;99.90
42617;DHT22;28250;52.320;0.360;2024-02-21T12:27:45;10.00;99.90
42617;DHT22;28250;52.320;0.360;2024-02-21T12:30:12;10.00;99.90
42617;DHT22;28250;52.320;0.360;2024-02-21T12:32:38;10.00;99.90
42617;DHT22;28250;52.320;0.360;2024-02-21T12:35:04;10.00;99.90
42617;DHT22;28250;52.320;0.360;2024-02-21T12:37:31;10.10;99.90
42617;DHT22;28250;52.320;0.360;2024-02-21T12:39:59;10.10;99.90
42617;DHT22;28250;52.320;0.360;2024-02-21T12:42:25;10.20;99.90
42617;DHT22;28250;52.320;0.360;2024-02-21T12:44:52;10.20;99.90
42617;DHT22;28250;52.320;0.360;2024-02-21T12:47:18;10.20;99.90
42617;DHT22;28250;52.320;0.360;2024-02-21T12:49:49;10.20;99.90
42617;DHT22;28250;52.320;0.360;2024-02-21T12:52:15;10.20;99.90
42617;DHT22;28250;52.320;0.360;2024-02-21T12:54:42;10.20;99.90
42617;DHT22;28250;52.320;0.360;2024-02-21T12:57:11;10.20;99.90
42617;DHT22;28250;52.320;0.360;2024-02-21T12:59:37;10.20;99.90
42617;DHT22;28250;52.320;0.360;2024-02-21T13:02:03;10.20;99.90
42617;DHT22;28250;52.320;0.360;2024-02-21T13:04:29;10.20;99.90
42617;DHT22;28250;52.320;0.360;2024-02-21T13:06:55;10.30;99.90
42617;DHT22;28250;52.320;0.360;2024-02-21T13:09:21;10.30;99.90
42617;DHT22;28250;52.320;0.360;2024-02-21T13:11:47;10.20;99.90
42617;DHT22;28250;52.320;0.360;2024-02-21T13:14:13;10.30;99.90
42617;DHT22;28250;52.320;0.360;2024-02-21T13:16:39;10.20;99.90
42617;DHT22;28250;52.320;0.360;2024-02-21T13:19:06;10.20;99.90
42617;DHT22;28250;52.320;0.360;2024-02-21T13:21:36;10.30;99.90
42617;DHT22;28250;52.320;0.360;2024-02-21T13:24:02;10.20;99.90
42617;DHT22;28250;52.320;0.360;2024-02-21T13:26:29;10.30;99.90
42617;DHT22;28250;52.320;0.360;2024-02-21T13:28:55;10.30;99.90
42617;DHT22;28250;52.320;0.360;2024-02-21T13:31:22;10.30;99.90
42617;DHT22;28250;52.320;0.360;2024-02-21T13:33:48;10.30;99.90
42617;DHT22;28250;52.320;0.360;2024-02-21T13:36:14;10.30;99.90
42617;DHT22;28250;52.320;0.360;2024-02-21T13:38:40;10.30;99.90
42617;DHT22;28250;52.320;0.360;2024-02-21T13:41:06;10.30;99.90
42617;DHT22;28250;52.320;0.360;2024-02-21T13:43:33;10.30;99.90
42617;DHT22;28250;52.320;0.360;2024-02-21T13:46:00;10.30;99.90
42617;DHT22;28250;52.320;0.360;2024-02-21T13:48:28;10.30;99.90
42617;DHT22;28250;52.320;0.360;2024-02-21T13:50:55;10.30;99.90
42617;DHT22;28250;52.320;0.360;2024-02-21T13:53:21;10.40;99.90
42617;DHT22;28250;52.320;0.360;2024-02-21T13:55:49;10.40;99.90
42617;DHT22;28250;52.320;0.360;2024-02-21T13:58:16;10.40;99.90
42617;DHT22;28250;52.320;0.360;2024-02-21T14:00:43;10.40;99.90
42617;DHT22;28250;52.320;0.360;2024-02-21T14:03:09;10.50;99.90
42617;DHT22;28250;52.320;0.360;2024-02-21T14:05:35;10.40;99.90
42617;DHT22;28250;52.320;0.360;2024-02-21T14:08:01;10.50;99.90
42617;DHT22;28250;52.320;0.360;2024-02-21T14:10:27;10.50;99.90
42617;DHT22;28250;52.320;0.360;2024-02-21T14:12:54;10.50;99.90
42617;DHT22;28250;52.320;0.360;2024-02-21T14:15:20;10.50;99.90
42617;DHT22;28250;52.320;0.360;2024-02-21T14:17:46;10.50;99.90
42617;DHT22;28250;52.320;0.360;2024-02-21T14:20:13;10.60;99.90
42617;DHT22;28250;52.320;0.360;2024-02-21T14:22:42;10.60;99.90
42617;DHT22;28250;52.320;0.360;2024-02-21T14:25:08;10.60;99.90
42617;DHT22;28250;52.320;0.360;2024-02-21T14:27:34;10.60;99.90
42617;DHT22;28250;52.320;0.360;2024-02-21T14:30:04;10.60;99.90
42617;DHT22;28250;52.320;0.360;2024-02-21T14:32:31;10.60;99.90
42617;DHT22;28250;52.320;0.360;2024-02-21T14:34:58;10.70;99.90
42617;DHT22;28250;52.320;0.360;2024-02-21T14:37:24;10.70;99.90
42617;DHT22;28250;52.320;0.360;2024-02-21T14:39:50;10.80;99.90
42617;DHT22;28250;52.320;0.360;2024-02-21T14:42:16;10.80;99.90
42617;DHT22;28250;52.320;0.360;2024-02-21T14:44:43;10.90;99.90
42617;DHT22;28250;52.320;0.360;2024-02-21T14:47:09;10.90;99.90
42617;DHT22;28250;52.320;0.360;2024-02-21T14:49:35;10.90;99.90
42617;DHT22;28250;52.320;0.360;2024-02-21T14:52:01;10.90;99.90
42617;DHT22;28250;52.320;0.360;2024-02-21T14:54:28;10.90;99.90
42617;DHT22;28250;52.320;0.360;2024-02-21T14:56:54;10.90;99.90
42617;DHT22;28250;52.320;0.360;2024-02-21T14:59:20;10.90;99.90
42617;DHT22;28250;52.320;0.360;2024-02-21T15:01:46;10.90;99.90
42617;DHT22;28250;52.320;0.360;2024-02-21T15:04:12;11.00;99.90
42617;DHT22;28250;52.320;0.360;2024-02-21T15:06:38;11.00;99.90
42617;DHT22;28250;52.320;0.360;2024-02-21T15:09:04;11.00;99.90
42617;DHT22;28250;52.320;0.360;2024-02-21T15:11:33;11.00;99.90
42617;DHT22;28250;52.320;0.360;2024-02-21T15:13:59;11.00;99.90
42617;DHT22;28250;52.320;0.360;2024-02-21T15:16:25;11.00;99.90
42617;DHT22;28250;52.320;0.360;2024-02-21T15:18:51;11.00;99.90
42617;DHT22;28250;52.320;0.360;2024-02-21T15:21:17;11.00;99.90
42617;DHT22;28250;52.320;0.360;2024-02-21T15:23:44;11.10;99.90
42617;DHT22;28250;52.320;0.360;2024-02-21T15:26:10;11.10;99.90
42617;DHT22;28250;52.320;0.360;2024-02-21T15:28:37;11.10;99.90
42617;DHT22;28250;52.320;0.360;2024-02-21T15:31:03;11.10;99.90
42617;DHT22;28250;52.320;0.360;2024-02-21T15:33:29;11.10;99.90
42617;DHT22;28250;52.320;0.360;2024-02-21T15:35:55;11.20;99.90
42617;DHT22;28250;52.320;0.360;2024-02-21T15:38:21;11.10;99.90
42617;DHT22;28250;52.320;0.360;2024-02-21T15:40:47;11.10;99.90
42617;DHT22;28250;52.320;0.360;2024-02-21T15:43:13;11.10;99.90
42617;DHT22;28250;52.320;0.360;2024-02-21T15:45:39;11.10;99.90